createdAt,value
2022-08-24T00:00:15.215Z,0.00
2022-08-24T00:01:15.169Z,0.00
2022-08-24T00:02:15.169Z,0.00
2022-08-24T00:03:15.176Z,0.00
2022-08-24T00:04:16.158Z,0.00
2022-08-24T00:05:15.109Z,0.00
2022-08-24T00:06:14.867Z,0.00
2022-08-24T00:07:21.356Z,0.00
2022-08-24T00:08:14.737Z,0.00
2022-08-24T00:09:14.689Z,0.00
2022-08-24T00:10:14.617Z,0.00
2022-08-24T00:11:14.556Z,0.00
2022-08-24T00:12:14.495Z,0.00
2022-08-24T00:13:14.436Z,0.00
2022-08-24T00:14:14.377Z,0.00
2022-08-24T00:15:14.316Z,0.00
2022-08-24T00:16:14.301Z,0.00
2022-08-24T00:17:14.197Z,0.00
2022-08-24T00:18:14.136Z,0.00
2022-08-24T00:19:14.075Z,0.00
2022-08-24T00:20:14.013Z,0.00
2022-08-24T00:21:21.877Z,0.00
2022-08-24T00:22:13.920Z,0.00
2022-08-24T00:23:13.837Z,0.00
2022-08-24T00:24:13.773Z,0.00
2022-08-24T00:25:13.726Z,0.00
2022-08-24T00:26:13.655Z,0.00
2022-08-24T00:27:13.595Z,0.00
2022-08-24T00:28:13.548Z,0.00
2022-08-24T00:29:13.485Z,0.00
2022-08-24T00:30:13.423Z,0.00
2022-08-24T00:31:13.395Z,0.00
2022-08-24T00:32:13.296Z,0.00
2022-08-24T00:33:13.236Z,0.00
2022-08-24T00:34:13.175Z,0.00
2022-08-24T00:35:13.115Z,0.00
2022-08-24T00:36:13.057Z,0.00
2022-08-24T00:37:12.995Z,0.00
2022-08-24T00:38:12.939Z,0.00
2022-08-24T00:39:12.873Z,0.00
2022-08-24T00:40:12.919Z,0.00
2022-08-24T00:41:12.757Z,0.00
2022-08-24T00:42:12.695Z,0.00
2022-08-24T00:43:12.634Z,0.00
2022-08-24T00:44:14.077Z,0.00
2022-08-24T00:45:12.514Z,0.00
2022-08-24T00:46:12.534Z,0.00
2022-08-24T00:47:12.394Z,0.00
2022-08-24T00:48:12.335Z,0.00
2022-08-24T00:49:12.276Z,0.00
2022-08-24T00:50:12.212Z,0.00
2022-08-24T00:51:12.158Z,0.00
2022-08-24T00:52:12.092Z,0.00
2022-08-24T00:53:12.036Z,0.00
2022-08-24T00:54:11.990Z,0.00
2022-08-24T00:55:11.928Z,0.00
2022-08-24T00:56:11.850Z,0.00
2022-08-24T00:57:11.796Z,0.00
2022-08-24T00:58:17.000Z,0.00
2022-08-24T00:59:11.704Z,0.00
2022-08-24T01:00:11.613Z,0.00
2022-08-24T01:01:11.682Z,0.00
2022-08-24T01:02:15.309Z,0.00
2022-08-24T01:03:11.433Z,0.00
2022-08-24T01:04:11.376Z,0.00
2022-08-24T01:05:11.316Z,0.00
2022-08-24T01:06:11.251Z,0.00
2022-08-24T01:07:11.195Z,0.00
2022-08-24T01:08:11.129Z,0.00
2022-08-24T01:09:11.082Z,0.00
2022-08-24T01:10:11.009Z,0.00
2022-08-24T01:11:10.966Z,0.00
2022-08-24T01:12:10.890Z,0.00
2022-08-24T01:13:10.835Z,0.00
2022-08-24T01:14:10.771Z,0.00
2022-08-24T01:15:10.712Z,0.00
2022-08-24T01:16:10.694Z,0.00
2022-08-24T01:17:10.592Z,0.00
2022-08-24T01:18:10.533Z,0.00
2022-08-24T01:19:10.472Z,0.00
2022-08-24T01:20:10.411Z,0.00
2022-08-24T01:21:10.352Z,0.00
2022-08-24T01:22:10.291Z,0.00
2022-08-24T01:23:10.243Z,0.00
2022-08-24T01:24:10.169Z,0.00
2022-08-24T01:25:10.119Z,0.00
2022-08-24T01:26:10.064Z,0.00
2022-08-24T01:27:09.996Z,0.00
2022-08-24T01:28:09.937Z,0.00
2022-08-24T01:29:09.876Z,0.00
2022-08-24T01:30:09.813Z,0.00
2022-08-24T01:31:09.798Z,0.00
2022-08-24T01:32:09.688Z,0.00
2022-08-24T01:33:09.638Z,0.00
2022-08-24T01:34:09.589Z,0.00
2022-08-24T01:35:09.509Z,0.00
2022-08-24T01:36:09.449Z,0.00
2022-08-24T01:37:09.390Z,0.00
2022-08-24T01:38:09.328Z,0.00
2022-08-24T01:39:09.280Z,0.00
2022-08-24T01:40:09.260Z,0.00
2022-08-24T01:41:09.146Z,0.00
2022-08-24T01:42:09.090Z,0.00
2022-08-24T01:43:09.025Z,0.00
2022-08-24T01:44:08.964Z,0.00
2022-08-24T01:45:08.906Z,0.00
2022-08-24T01:46:08.883Z,0.00
2022-08-24T01:47:08.786Z,0.00
2022-08-24T01:48:08.728Z,0.00
2022-08-24T01:49:08.667Z,0.00
2022-08-24T01:50:08.606Z,0.00
2022-08-24T01:51:08.546Z,0.00
2022-08-24T01:52:08.484Z,0.00
2022-08-24T01:53:08.423Z,0.00
2022-08-24T01:54:08.387Z,0.00
2022-08-24T01:55:08.316Z,0.00
2022-08-24T01:56:08.245Z,0.00
2022-08-24T01:57:08.185Z,0.00
2022-08-24T01:58:08.127Z,0.00
2022-08-24T01:59:08.071Z,0.00
2022-08-24T02:00:08.011Z,0.00
2022-08-24T02:01:07.941Z,0.00
2022-08-24T02:02:07.939Z,0.00
2022-08-24T02:03:07.963Z,0.00
2022-08-24T02:04:08.737Z,0.00
2022-08-24T02:05:07.705Z,0.00
2022-08-24T02:06:07.645Z,0.00
2022-08-24T02:07:07.578Z,0.00
2022-08-24T02:08:07.520Z,0.00
2022-08-24T02:09:07.459Z,0.00
2022-08-24T02:10:07.400Z,0.00
2022-08-24T02:11:07.344Z,0.00
2022-08-24T02:12:07.279Z,0.00
2022-08-24T02:13:07.228Z,0.00
2022-08-24T02:14:07.184Z,0.00
2022-08-24T02:15:07.098Z,0.00
2022-08-24T02:16:07.144Z,0.00
2022-08-24T02:17:06.982Z,0.00
2022-08-24T02:18:06.917Z,0.00
2022-08-24T02:19:06.857Z,0.00
2022-08-24T02:20:06.801Z,0.00
2022-08-24T02:21:06.733Z,0.00
2022-08-24T02:22:06.698Z,0.00
2022-08-24T02:23:06.615Z,0.00
2022-08-24T02:24:06.557Z,0.00
2022-08-24T02:25:06.493Z,0.00
2022-08-24T02:26:06.436Z,0.00
2022-08-24T02:27:06.382Z,0.00
2022-08-24T02:28:06.334Z,0.00
2022-08-24T02:29:06.254Z,0.00
2022-08-24T02:30:06.207Z,0.00
2022-08-24T02:31:06.204Z,0.00
2022-08-24T02:32:06.079Z,0.00
2022-08-24T02:33:06.013Z,0.00
2022-08-24T02:34:05.960Z,0.00
2022-08-24T02:35:05.907Z,0.00
2022-08-24T02:36:25.694Z,0.00
2022-08-24T02:37:05.775Z,0.00
2022-08-24T02:38:05.717Z,0.00
2022-08-24T02:39:05.652Z,0.00
2022-08-24T02:40:05.637Z,0.00
2022-08-24T02:41:05.533Z,0.00
2022-08-24T02:42:05.474Z,0.00
2022-08-24T02:43:05.516Z,0.00
2022-08-24T02:44:05.363Z,0.00
2022-08-24T02:45:05.303Z,0.00
2022-08-24T02:46:05.265Z,0.00
2022-08-24T02:47:05.174Z,0.00
2022-08-24T02:48:05.112Z,0.00
2022-08-24T02:49:11.772Z,0.00
2022-08-24T02:50:04.992Z,0.00
2022-08-24T02:51:04.931Z,0.00
2022-08-24T02:52:04.872Z,0.00
2022-08-24T02:53:04.984Z,0.00
2022-08-24T02:54:04.753Z,0.00
2022-08-24T02:55:04.694Z,0.00
2022-08-24T02:56:04.630Z,0.00
2022-08-24T02:57:04.573Z,0.00
2022-08-24T02:58:04.510Z,0.00
2022-08-24T02:59:04.463Z,0.00
2022-08-24T03:00:08.254Z,0.00
2022-08-24T03:01:04.361Z,0.00
2022-08-24T03:02:04.300Z,0.00
2022-08-24T03:03:04.386Z,0.00
2022-08-24T03:04:04.153Z,0.00
2022-08-24T03:05:04.090Z,0.00
2022-08-24T03:06:04.059Z,0.00
2022-08-24T03:07:03.973Z,0.00
2022-08-24T03:08:03.924Z,0.00
2022-08-24T03:09:03.852Z,0.00
2022-08-24T03:10:03.788Z,0.00
2022-08-24T03:11:03.729Z,0.00
2022-08-24T03:12:03.671Z,0.00
2022-08-24T03:13:03.849Z,0.00
2022-08-24T03:14:03.546Z,0.00
2022-08-24T03:15:03.491Z,0.00
2022-08-24T03:16:03.475Z,0.00
2022-08-24T03:17:03.366Z,0.00
2022-08-24T03:18:03.306Z,0.00
2022-08-24T03:19:03.244Z,0.00
2022-08-24T03:20:03.185Z,0.00
2022-08-24T03:21:03.130Z,0.00
2022-08-24T03:22:03.070Z,0.00
2022-08-24T03:23:03.175Z,0.00
2022-08-24T03:24:02.954Z,0.00
2022-08-24T03:25:02.883Z,0.00
2022-08-24T03:26:02.825Z,0.00
2022-08-24T03:27:02.763Z,0.00
2022-08-24T03:28:02.704Z,0.00
2022-08-24T03:29:02.642Z,0.00
2022-08-24T03:30:02.583Z,0.00
2022-08-24T03:31:03.533Z,0.00
2022-08-24T03:32:02.474Z,0.00
2022-08-24T03:33:02.528Z,0.00
2022-08-24T03:34:02.362Z,0.00
2022-08-24T03:35:02.295Z,0.00
2022-08-24T03:36:02.221Z,0.00
2022-08-24T03:37:02.163Z,4.00
2022-08-24T03:38:02.111Z,4.00
2022-08-24T03:39:02.043Z,0.00
2022-08-24T03:40:02.023Z,4.00
2022-08-24T03:41:01.928Z,4.00
2022-08-24T03:42:01.870Z,4.00
2022-08-24T03:43:01.846Z,4.00
2022-08-24T03:44:01.743Z,4.00
2022-08-24T03:45:01.678Z,4.00
2022-08-24T03:46:01.662Z,4.00
2022-08-24T03:47:01.560Z,4.00
2022-08-24T03:48:01.501Z,8.00
2022-08-24T03:49:01.435Z,8.00
2022-08-24T03:50:01.389Z,8.00
2022-08-24T03:51:01.360Z,12.00
2022-08-24T03:52:01.257Z,12.00
2022-08-24T03:53:01.202Z,12.00
2022-08-24T03:54:01.150Z,16.00
2022-08-24T03:55:01.074Z,16.00
2022-08-24T03:56:01.013Z,20.00
2022-08-24T03:57:00.955Z,20.00
2022-08-24T03:58:00.896Z,24.00
2022-08-24T03:59:00.833Z,24.00
2022-08-24T04:00:00.780Z,28.00
2022-08-24T04:01:00.861Z,32.00
2022-08-24T04:02:00.686Z,36.00
2022-08-24T04:03:00.590Z,36.00
2022-08-24T04:04:00.533Z,40.00
2022-08-24T04:05:00.470Z,44.00
2022-08-24T04:06:00.830Z,44.00
2022-08-24T04:07:00.349Z,48.00
2022-08-24T04:08:00.289Z,52.00
2022-08-24T04:09:00.243Z,56.00
2022-08-24T04:10:00.200Z,60.00
2022-08-24T04:11:00.113Z,64.00
2022-08-24T04:12:00.060Z,68.00
2022-08-24T04:12:59.999Z,72.00
2022-08-24T04:13:59.937Z,76.00
2022-08-24T04:14:59.888Z,80.00
2022-08-24T04:15:59.823Z,84.00
2022-08-24T04:16:59.783Z,92.00
2022-08-24T04:17:59.691Z,96.00
2022-08-24T04:18:59.640Z,100.00
2022-08-24T04:19:59.598Z,108.00
2022-08-24T04:20:59.520Z,116.00
2022-08-24T04:21:59.448Z,120.00
2022-08-24T04:22:59.523Z,128.00
2022-08-24T04:23:59.339Z,136.00
2022-08-24T04:24:59.276Z,144.00
2022-08-24T04:25:59.205Z,148.00
2022-08-24T04:26:59.149Z,160.00
2022-08-24T04:27:59.182Z,164.00
2022-08-24T04:28:59.023Z,172.00
2022-08-24T04:29:58.960Z,180.00
2022-08-24T04:30:58.905Z,188.00
2022-08-24T04:31:58.885Z,200.00
2022-08-24T04:32:58.869Z,204.00
2022-08-24T04:33:58.721Z,212.00
2022-08-24T04:34:58.664Z,224.00
2022-08-24T04:35:58.599Z,232.00
2022-08-24T04:36:58.536Z,244.00
2022-08-24T04:37:58.495Z,256.00
2022-08-24T04:38:58.444Z,264.00
2022-08-24T04:39:58.434Z,276.00
2022-08-24T04:41:00.278Z,288.00
2022-08-24T04:41:59.966Z,296.00
2022-08-24T04:42:58.221Z,300.00
2022-08-24T04:43:58.114Z,304.00
2022-08-24T04:44:58.059Z,316.00
2022-08-24T04:45:58.024Z,324.00
2022-08-24T04:46:57.949Z,344.00
2022-08-24T04:47:57.883Z,340.00
2022-08-24T04:48:57.824Z,328.00
2022-08-24T04:49:57.770Z,312.00
2022-08-24T04:50:57.702Z,304.00
2022-08-24T04:51:57.637Z,316.00
2022-08-24T04:52:57.573Z,316.00
2022-08-24T04:53:57.524Z,324.00
2022-08-24T04:54:57.456Z,332.00
2022-08-24T04:55:57.390Z,328.00
2022-08-24T04:56:57.333Z,320.00
2022-08-24T04:57:57.279Z,316.00
2022-08-24T04:58:57.219Z,320.00
2022-08-24T04:59:57.157Z,328.00
2022-08-24T05:00:57.163Z,336.00
2022-08-24T05:01:57.051Z,340.00
2022-08-24T05:02:56.968Z,364.00
2022-08-24T05:03:56.909Z,380.00
2022-08-24T05:04:56.854Z,384.00
2022-08-24T05:05:56.792Z,396.00
2022-08-24T05:06:56.727Z,416.00
2022-08-24T05:07:56.812Z,440.00
2022-08-24T05:08:56.605Z,468.00
2022-08-24T05:09:56.567Z,480.00
2022-08-24T05:10:56.509Z,476.00
2022-08-24T05:11:56.444Z,476.00
2022-08-24T05:12:56.380Z,500.00
2022-08-24T05:13:56.313Z,544.00
2022-08-24T05:14:56.249Z,552.00
2022-08-24T05:15:56.222Z,520.00
2022-08-24T05:16:56.147Z,516.00
2022-08-24T05:17:56.081Z,488.00
2022-08-24T05:18:56.038Z,480.00
2022-08-24T05:19:55.951Z,512.00
2022-08-24T05:20:55.894Z,500.00
2022-08-24T05:21:55.835Z,508.00
2022-08-24T05:22:57.417Z,588.00
2022-08-24T05:23:55.712Z,608.00
2022-08-24T05:24:55.646Z,544.00
2022-08-24T05:25:55.588Z,624.00
2022-08-24T05:26:55.529Z,668.00
2022-08-24T05:27:55.467Z,664.00
2022-08-24T05:28:55.403Z,736.00
2022-08-24T05:29:55.360Z,668.00
2022-08-24T05:30:55.287Z,656.00
2022-08-24T05:31:55.232Z,760.00
2022-08-24T05:32:55.167Z,772.00
2022-08-24T05:33:55.114Z,808.00
2022-08-24T05:34:55.047Z,868.00
2022-08-24T05:35:55.012Z,880.00
2022-08-24T05:36:54.932Z,1008.00
2022-08-24T05:37:54.912Z,1068.00
2022-08-24T05:38:54.842Z,1124.00
2022-08-24T05:39:54.812Z,1128.00
2022-08-24T05:40:54.687Z,1184.00
2022-08-24T05:41:54.624Z,1128.00
2022-08-24T05:42:54.592Z,1152.00
2022-08-24T05:43:54.519Z,1192.00
2022-08-24T05:44:54.450Z,1112.00
2022-08-24T05:45:54.395Z,1264.00
2022-08-24T05:46:54.443Z,1404.00
2022-08-24T05:47:54.281Z,1308.00
2022-08-24T05:48:54.377Z,1260.00
2022-08-24T05:49:54.172Z,1172.00
2022-08-24T05:50:54.091Z,1224.00
2022-08-24T05:51:54.032Z,1352.00
2022-08-24T05:52:53.996Z,1360.00
2022-08-24T05:53:53.914Z,1288.00
2022-08-24T05:54:53.852Z,1308.00
2022-08-24T05:55:53.788Z,1412.00
2022-08-24T05:56:53.736Z,1468.00
2022-08-24T05:57:53.674Z,1524.00
2022-08-24T05:58:53.608Z,1540.00
2022-08-24T05:59:53.550Z,1500.00
2022-08-24T06:00:53.487Z,1448.00
2022-08-24T06:01:53.682Z,1300.00
2022-08-24T06:02:53.520Z,1176.00
2022-08-24T06:03:53.331Z,1084.00
2022-08-24T06:04:53.250Z,1112.00
2022-08-24T06:05:53.194Z,1152.00
2022-08-24T06:06:53.133Z,1104.00
2022-08-24T06:07:53.078Z,1036.00
2022-08-24T06:08:53.024Z,884.00
2022-08-24T06:09:52.966Z,812.00
2022-08-24T06:10:52.897Z,796.00
2022-08-24T06:11:52.843Z,796.00
2022-08-24T06:12:52.778Z,780.00
2022-08-24T06:13:59.111Z,700.00
2022-08-24T06:14:52.659Z,652.00
2022-08-24T06:16:11.202Z,672.00
2022-08-24T06:16:52.666Z,712.00
2022-08-24T06:17:52.524Z,748.00
2022-08-24T06:18:52.439Z,804.00
2022-08-24T06:19:52.363Z,908.00
2022-08-24T06:20:52.308Z,1000.00
2022-08-24T06:21:52.242Z,1044.00
2022-08-24T06:22:52.185Z,1028.00
2022-08-24T06:23:52.126Z,936.00
2022-08-24T06:24:52.075Z,844.00
2022-08-24T06:25:52.017Z,844.00
2022-08-24T06:26:51.961Z,880.00
2022-08-24T06:27:51.893Z,932.00
2022-08-24T06:28:51.836Z,1016.00
2022-08-24T06:29:51.770Z,1060.00
2022-08-24T06:30:51.714Z,988.00
2022-08-24T06:31:54.140Z,964.00
2022-08-24T06:32:51.595Z,984.00
2022-08-24T06:33:51.534Z,960.00
2022-08-24T06:34:51.477Z,952.00
2022-08-24T06:35:51.415Z,960.00
2022-08-24T06:36:51.361Z,1016.00
2022-08-24T06:37:51.297Z,972.00
2022-08-24T06:38:51.254Z,988.00
2022-08-24T06:39:55.134Z,1024.00
2022-08-24T06:40:51.129Z,1064.00
2022-08-24T06:41:51.063Z,956.00
2022-08-24T06:42:51.009Z,856.00
2022-08-24T06:43:50.950Z,808.00
2022-08-24T06:44:50.885Z,788.00
2022-08-24T06:45:50.824Z,748.00
2022-08-24T06:46:50.825Z,680.00
2022-08-24T06:47:50.712Z,648.00
2022-08-24T06:48:50.652Z,672.00
2022-08-24T06:49:50.603Z,668.00
2022-08-24T06:50:50.584Z,624.00
2022-08-24T06:51:51.012Z,632.00
2022-08-24T06:52:50.420Z,732.00
2022-08-24T06:53:50.354Z,804.00
2022-08-24T06:54:50.312Z,764.00
2022-08-24T06:55:50.246Z,700.00
2022-08-24T06:56:50.202Z,724.00
2022-08-24T06:57:52.557Z,764.00
2022-08-24T06:58:50.060Z,732.00
2022-08-24T06:59:50.007Z,640.00
2022-08-24T07:00:49.942Z,588.00
2022-08-24T07:01:49.959Z,584.00
2022-08-24T07:02:49.871Z,608.00
2022-08-24T07:03:49.763Z,636.00
2022-08-24T07:04:49.708Z,668.00
2022-08-24T07:05:49.644Z,692.00
2022-08-24T07:06:49.587Z,692.00
2022-08-24T07:07:49.532Z,672.00
2022-08-24T07:08:49.480Z,684.00
2022-08-24T07:09:49.424Z,720.00
2022-08-24T07:10:49.361Z,800.00
2022-08-24T07:11:49.298Z,892.00
2022-08-24T07:12:49.235Z,948.00
2022-08-24T07:13:49.196Z,912.00
2022-08-24T07:14:49.117Z,896.00
2022-08-24T07:15:49.090Z,868.00
2022-08-24T07:16:49.001Z,828.00
2022-08-24T07:17:48.939Z,768.00
2022-08-24T07:18:50.200Z,740.00
2022-08-24T07:19:48.822Z,752.00
2022-08-24T07:20:48.763Z,804.00
2022-08-24T07:21:48.702Z,888.00
2022-08-24T07:22:48.671Z,984.00
2022-08-24T07:23:48.592Z,1072.00
2022-08-24T07:24:48.532Z,1108.00
2022-08-24T07:25:51.268Z,1072.00
2022-08-24T07:26:48.409Z,1092.00
2022-08-24T07:27:48.352Z,1160.00
2022-08-24T07:28:48.294Z,1148.00
2022-08-24T07:29:56.491Z,1108.00
2022-08-24T07:30:48.221Z,1068.00
2022-08-24T07:31:48.158Z,1028.00
2022-08-24T07:32:48.073Z,988.00
2022-08-24T07:33:48.001Z,948.00
2022-08-24T07:34:47.939Z,932.00
2022-08-24T07:35:47.890Z,916.00
2022-08-24T07:36:47.820Z,928.00
2022-08-24T07:37:47.762Z,980.00
2022-08-24T07:38:47.718Z,992.00
2022-08-24T07:39:47.825Z,956.00
2022-08-24T07:41:09.348Z,944.00
2022-08-24T07:42:10.890Z,1008.00
2022-08-24T07:42:47.470Z,1120.00
2022-08-24T07:43:47.417Z,1272.00
2022-08-24T07:44:47.353Z,1440.00
2022-08-24T07:45:47.300Z,1636.00
2022-08-24T07:46:47.328Z,2032.00
2022-08-24T07:47:54.512Z,2408.00
2022-08-24T07:48:48.476Z,2548.00
2022-08-24T07:49:47.127Z,2364.00
2022-08-24T07:50:47.011Z,2484.00
2022-08-24T07:51:47.319Z,2872.00
2022-08-24T07:52:46.904Z,2844.00
2022-08-24T07:53:54.457Z,3848.00
2022-08-24T07:54:46.774Z,4368.00
2022-08-24T07:55:46.795Z,3212.00
2022-08-24T07:56:46.656Z,2124.00
2022-08-24T07:57:46.597Z,1652.00
2022-08-24T07:58:46.573Z,1692.00
2022-08-24T07:59:46.568Z,1980.00
2022-08-24T08:00:46.420Z,2216.00
2022-08-24T08:01:46.451Z,2116.00
2022-08-24T08:02:46.356Z,2176.00
2022-08-24T08:03:46.260Z,1856.00
2022-08-24T08:04:46.195Z,1644.00
2022-08-24T08:05:46.130Z,1432.00
2022-08-24T08:06:46.115Z,1320.00
2022-08-24T08:07:48.787Z,1244.00
2022-08-24T08:08:45.974Z,1168.00
2022-08-24T08:09:45.997Z,1080.00
2022-08-24T08:10:45.846Z,992.00
2022-08-24T08:11:45.829Z,932.00
2022-08-24T08:12:45.756Z,928.00
2022-08-24T08:13:45.677Z,944.00
2022-08-24T08:14:45.618Z,1004.00
2022-08-24T08:15:45.616Z,1088.00
2022-08-24T08:16:45.519Z,1204.00
2022-08-24T08:17:45.444Z,1324.00
2022-08-24T08:18:45.602Z,1488.00
2022-08-24T08:19:45.365Z,1704.00
2022-08-24T08:20:45.292Z,2128.00
2022-08-24T08:21:45.222Z,5608.00
2022-08-24T08:22:45.169Z,3528.00
2022-08-24T08:23:45.094Z,1932.00
2022-08-24T08:24:45.029Z,1728.00
2022-08-24T08:25:47.390Z,1744.00
2022-08-24T08:26:44.915Z,1696.00
2022-08-24T08:28:44.806Z,1524.00
2022-08-24T08:29:44.905Z,1496.00
2022-08-24T08:30:44.759Z,1460.00
2022-08-24T08:31:44.627Z,1424.00
2022-08-24T08:32:44.573Z,1340.00
2022-08-24T08:33:44.518Z,1248.00
2022-08-24T08:34:44.451Z,1168.00
2022-08-24T08:35:44.392Z,1116.00
2022-08-24T08:36:44.337Z,1088.00
2022-08-24T08:37:44.276Z,1100.00
2022-08-24T08:38:44.221Z,1132.00
2022-08-24T08:39:44.222Z,1172.00
2022-08-24T08:40:44.106Z,1160.00
2022-08-24T08:41:44.056Z,1108.00
2022-08-24T08:42:43.997Z,1048.00
2022-08-24T08:43:43.933Z,988.00
2022-08-24T08:44:43.872Z,952.00
2022-08-24T08:45:43.850Z,932.00
2022-08-24T08:46:43.757Z,928.00
2022-08-24T08:47:43.697Z,940.00
2022-08-24T08:48:43.646Z,960.00
2022-08-24T08:49:43.588Z,984.00
2022-08-24T08:50:43.529Z,1028.00
2022-08-24T08:51:43.476Z,1080.00
2022-08-24T08:52:43.422Z,1160.00
2022-08-24T08:53:43.362Z,1284.00
2022-08-24T08:54:43.875Z,1420.00
2022-08-24T08:55:43.245Z,1608.00
2022-08-24T08:56:43.181Z,1800.00
2022-08-24T08:57:43.129Z,1648.00
2022-08-24T08:58:53.762Z,1480.00
2022-08-24T08:59:43.011Z,1336.00
2022-08-24T09:00:42.963Z,1244.00
2022-08-24T09:01:46.962Z,1216.00
2022-08-24T09:02:42.837Z,1240.00
2022-08-24T09:03:42.775Z,1300.00
2022-08-24T09:04:42.837Z,1388.00
2022-08-24T09:05:42.855Z,1524.00
2022-08-24T09:06:42.606Z,1692.00
2022-08-24T09:07:42.544Z,1868.00
2022-08-24T09:08:42.491Z,2076.00
2022-08-24T09:09:42.427Z,2720.00
2022-08-24T09:10:42.380Z,2328.00
2022-08-24T09:11:42.333Z,1988.00
2022-08-24T09:12:42.259Z,1936.00
2022-08-24T09:13:42.198Z,1980.00
2022-08-24T09:14:42.142Z,2096.00
2022-08-24T09:15:42.085Z,2212.00
2022-08-24T09:16:42.065Z,2332.00
2022-08-24T09:17:41.966Z,2420.00
2022-08-24T09:18:41.912Z,2428.00
2022-08-24T09:19:41.868Z,2488.00
2022-08-24T09:20:41.801Z,2532.00
2022-08-24T09:21:41.739Z,2428.00
2022-08-24T09:22:41.683Z,2384.00
2022-08-24T09:23:41.620Z,2348.00
2022-08-24T09:24:41.566Z,2368.00
2022-08-24T09:25:41.513Z,2352.00
2022-08-24T09:26:41.460Z,2324.00
2022-08-24T09:27:41.391Z,2292.00
2022-08-24T09:28:41.355Z,2320.00
2022-08-24T09:29:41.395Z,2080.00
2022-08-24T09:30:41.270Z,1912.00
2022-08-24T09:31:41.168Z,1816.00
2022-08-24T09:32:41.108Z,2052.00
2022-08-24T09:33:41.048Z,1552.00
2022-08-24T09:34:40.994Z,1512.00
2022-08-24T09:35:40.936Z,1536.00
2022-08-24T09:36:40.879Z,1560.00
2022-08-24T09:37:43.687Z,1580.00
2022-08-24T09:38:40.775Z,1568.00
2022-08-24T09:39:40.706Z,1568.00
2022-08-24T09:40:40.658Z,1512.00
2022-08-24T09:41:40.596Z,1456.00
2022-08-24T09:42:40.540Z,1392.00
2022-08-24T09:43:40.478Z,1328.00
2022-08-24T09:44:40.430Z,1260.00
2022-08-24T09:45:40.422Z,1204.00
2022-08-24T09:46:40.317Z,1136.00
2022-08-24T09:47:40.254Z,1108.00
2022-08-24T09:48:40.196Z,1088.00
2022-08-24T09:49:40.162Z,1068.00
2022-08-24T09:50:40.091Z,1052.00
2022-08-24T09:51:40.023Z,1036.00
2022-08-24T09:52:39.979Z,1048.00
2022-08-24T09:53:39.909Z,1060.00
2022-08-24T09:54:39.856Z,1076.00
2022-08-24T09:55:39.798Z,1084.00
2022-08-24T09:56:39.758Z,1104.00
2022-08-24T09:58:04.228Z,1120.00
2022-08-24T09:58:39.627Z,1116.00
2022-08-24T09:59:39.567Z,1104.00
2022-08-24T10:00:39.519Z,1072.00
2022-08-24T10:01:39.558Z,1036.00
2022-08-24T10:02:39.481Z,988.00
2022-08-24T10:03:39.348Z,928.00
2022-08-24T10:04:39.378Z,868.00
2022-08-24T10:05:39.337Z,824.00
2022-08-24T10:06:39.197Z,796.00
2022-08-24T10:07:41.055Z,816.00
2022-08-24T10:08:39.108Z,848.00
2022-08-24T10:09:39.048Z,896.00
2022-08-24T10:10:39.115Z,956.00
2022-08-24T10:11:38.933Z,1064.00
2022-08-24T10:12:38.861Z,1044.00
2022-08-24T10:13:38.836Z,1120.00
2022-08-24T10:14:38.839Z,1212.00
2022-08-24T10:15:38.762Z,1312.00
2022-08-24T10:16:38.686Z,1372.00
2022-08-24T10:17:38.796Z,1392.00
2022-08-24T10:18:38.569Z,1380.00
2022-08-24T10:19:38.535Z,1300.00
2022-08-24T10:20:38.467Z,1252.00
2022-08-24T10:21:40.537Z,1276.00
2022-08-24T10:22:38.384Z,1332.00
2022-08-24T10:23:38.285Z,1440.00
2022-08-24T10:24:38.187Z,1552.00
2022-08-24T10:25:38.194Z,1652.00
2022-08-24T10:26:38.095Z,1756.00
2022-08-24T10:27:38.102Z,1864.00
2022-08-24T10:28:38.008Z,1988.00
2022-08-24T10:29:38.014Z,2144.00
2022-08-24T10:30:37.905Z,2076.00
2022-08-24T10:31:37.787Z,2076.00
2022-08-24T10:32:37.764Z,2132.00
2022-08-24T10:33:38.010Z,2228.00
2022-08-24T10:34:37.660Z,2740.00
2022-08-24T10:35:37.820Z,2556.00
2022-08-24T10:36:37.534Z,2520.00
2022-08-24T10:37:37.490Z,2616.00
2022-08-24T10:38:37.454Z,3664.00
2022-08-24T10:39:37.501Z,5284.00
2022-08-24T10:40:37.426Z,5320.00
2022-08-24T10:41:39.330Z,4880.00
2022-08-24T10:42:37.180Z,2904.00
2022-08-24T10:43:37.180Z,2808.00
2022-08-24T10:44:37.090Z,3008.00
2022-08-24T10:45:37.052Z,3752.00
2022-08-24T10:46:36.997Z,3200.00
2022-08-24T10:47:36.903Z,3704.00
2022-08-24T10:48:36.807Z,5208.00
2022-08-24T10:49:36.816Z,3496.00
2022-08-24T10:50:36.728Z,2524.00
2022-08-24T10:51:36.793Z,2512.00
2022-08-24T10:52:36.610Z,2364.00
2022-08-24T10:53:36.534Z,2312.00
2022-08-24T10:54:36.472Z,2812.00
2022-08-24T10:55:36.541Z,4220.00
2022-08-24T10:56:36.347Z,3356.00
2022-08-24T10:57:36.285Z,4044.00
2022-08-24T10:58:36.466Z,4140.00
2022-08-24T10:59:37.415Z,4076.00
2022-08-24T11:00:36.406Z,2576.00
2022-08-24T11:01:36.168Z,3892.00
2022-08-24T11:02:36.119Z,3556.00
2022-08-24T11:03:35.982Z,2200.00
2022-08-24T11:04:36.022Z,4120.00
2022-08-24T11:05:35.897Z,4092.00
2022-08-24T11:06:35.898Z,3820.00
2022-08-24T11:07:35.734Z,3676.00
2022-08-24T11:08:35.741Z,1696.00
2022-08-24T11:09:35.711Z,1864.00
2022-08-24T11:10:35.613Z,3188.00
2022-08-24T11:11:35.520Z,2004.00
2022-08-24T11:12:35.661Z,1772.00
2022-08-24T11:13:35.568Z,3224.00
2022-08-24T11:14:35.383Z,1624.00
2022-08-24T11:15:35.375Z,2688.00
2022-08-24T11:16:35.361Z,2760.00
2022-08-24T11:17:35.253Z,2732.00
2022-08-24T11:18:35.154Z,2616.00
2022-08-24T11:19:35.168Z,2468.00
2022-08-24T11:20:35.302Z,2644.00
2022-08-24T11:21:34.974Z,2796.00
2022-08-24T11:22:34.974Z,2508.00
2022-08-24T11:23:34.874Z,2332.00
2022-08-24T11:24:34.880Z,1440.00
2022-08-24T11:25:34.719Z,1192.00
2022-08-24T11:26:34.698Z,1224.00
2022-08-24T11:27:34.806Z,1228.00
2022-08-24T11:28:34.951Z,1236.00
2022-08-24T11:29:34.704Z,1216.00
2022-08-24T11:30:34.608Z,1168.00
2022-08-24T11:31:35.995Z,1068.00
2022-08-24T11:32:34.354Z,1124.00
2022-08-24T11:33:34.375Z,1300.00
2022-08-24T11:34:34.330Z,1256.00
2022-08-24T11:35:34.343Z,1208.00
2022-08-24T11:36:34.236Z,1188.00
2022-08-24T11:37:34.145Z,1136.00
2022-08-24T11:38:34.053Z,1096.00
2022-08-24T11:39:33.990Z,1064.00
2022-08-24T11:40:33.963Z,1060.00
2022-08-24T11:41:33.964Z,1072.00
2022-08-24T11:42:33.873Z,1124.00
2022-08-24T11:43:33.777Z,1172.00
2022-08-24T11:44:33.781Z,1204.00
2022-08-24T11:45:33.734Z,1240.00
2022-08-24T11:46:33.776Z,1280.00
2022-08-24T11:47:33.599Z,1272.00
2022-08-24T11:48:33.601Z,1132.00
2022-08-24T11:49:33.517Z,1076.00
2022-08-24T11:50:33.413Z,1004.00
2022-08-24T11:51:33.345Z,1020.00
2022-08-24T11:52:33.250Z,1048.00
2022-08-24T11:53:33.296Z,1064.00
2022-08-24T11:54:33.157Z,1048.00
2022-08-24T11:55:47.409Z,1124.00
2022-08-24T11:56:33.069Z,1080.00
2022-08-24T11:57:33.043Z,996.00
2022-08-24T11:58:32.944Z,1004.00
2022-08-24T11:59:32.889Z,1032.00
2022-08-24T12:00:32.854Z,1184.00
2022-08-24T12:01:33.126Z,1164.00
2022-08-24T12:02:32.839Z,1128.00
2022-08-24T12:03:32.680Z,1092.00
2022-08-24T12:04:32.608Z,1060.00
2022-08-24T12:05:32.591Z,952.00
2022-08-24T12:06:32.630Z,912.00
2022-08-24T12:07:32.421Z,980.00
2022-08-24T12:08:32.400Z,1036.00
2022-08-24T12:09:32.400Z,1028.00
2022-08-24T12:10:33.009Z,1036.00
2022-08-24T12:11:32.312Z,1036.00
2022-08-24T12:12:32.249Z,1020.00
2022-08-24T12:13:32.118Z,1004.00
2022-08-24T12:14:32.058Z,1004.00
2022-08-24T12:15:32.027Z,1044.00
2022-08-24T12:16:32.031Z,1076.00
2022-08-24T12:17:31.878Z,1104.00
2022-08-24T12:18:31.847Z,1100.00
2022-08-24T12:19:31.847Z,1080.00
2022-08-24T12:20:31.766Z,1064.00
2022-08-24T12:21:31.657Z,1056.00
2022-08-24T12:22:31.662Z,1068.00
2022-08-24T12:23:31.578Z,1096.00
2022-08-24T12:24:31.474Z,1128.00
2022-08-24T12:25:31.478Z,1176.00
2022-08-24T12:26:31.384Z,1200.00
2022-08-24T12:27:31.318Z,1176.00
2022-08-24T12:28:31.290Z,1164.00
2022-08-24T12:29:31.197Z,1120.00
2022-08-24T12:30:31.201Z,1084.00
2022-08-24T12:31:31.168Z,988.00
2022-08-24T12:32:31.044Z,976.00
2022-08-24T12:33:31.042Z,956.00
2022-08-24T12:34:30.920Z,948.00